Latest Weather Observations for Mount Boyce

IDN60801

Issued at 1:34 pm EDT Friday 30 January 2015 (issued every 30 minutes, with the page automatically refreshed every 10 minutes)

About weather observations | Map of weather stations | Latest weather observations for NSW | Other Formats
Station Details ID: 063292 Name: MOUNT BOYCE AWS Lat: -33.62 Lon: 150.27 Height: 1080.0 m
Data from the previous 72 hours. | See also: Recent months at Mount Boyce
Date/Time
EDT
Temp
°C
App
Temp
°C
Dew
Point
Rel
Hum
%
Delta-T
°C
Wind Press
QNH
hPa
Press
MSL
hPa
Rain
since 9 am
mm
Dir
 
Spd
km/h
Gust
km/h
Spd
kts
Gust
kts
30/01:30pm 16.6 10.3 4.0 43 6.2 WSW 26 44 14 24 - - 0.0
30/01:00pm 16.8 10.5 5.7 48 5.7 WSW 28 43 15 23 - - 0.0
30/12:30pm 15.2 11.4 5.7 53 4.8 WSW 15 28 8 15 - - 0.0
30/12:00pm 15.5 10.8 6.2 54 4.8 W 20 32 11 17 - - 0.0
30/11:30am 14.4 10.1 5.2 54 4.6 W 17 37 9 20 - - 0.0
30/11:00am 13.8 10.8 5.9 59 4.0 WSW 11 17 6 9 - - 0.0
30/10:30am 12.5 8.9 5.0 60 3.7 WSW 13 17 7 9 - - 0.0
30/10:00am 11.8 7.8 3.1 55 4.1 W 13 20 7 11 - - 0.0
30/09:30am 9.7 5.9 5.9 77 1.9 W 15 20 8 11 - - 0.0
30/09:00am 10.0 6.8 5.2 72 2.3 W 11 19 6 10 - - 0.0
30/08:30am 8.7 5.8 6.5 86 1.1 WSW 11 17 6 9 - - 0.0
30/08:00am 8.6 5.7 6.4 86 1.1 WSW 11 13 6 7 - - 0.0
30/07:30am 8.0 5.4 6.3 89 0.8 WSW 9 11 5 6 - - 0.0
30/07:00am 7.5 4.5 6.0 90 0.7 WSW 11 13 6 7 - - 0.0
30/06:30am 7.3 4.2 5.6 89 0.8 WSW 11 13 6 7 - - 0.0
30/06:00am 7.8 5.1 5.6 86 1.1 WSW 9 15 5 8 - - 0.0
30/05:30am 7.8 4.7 5.4 85 1.1 WSW 11 13 6 7 - - 0.0
30/05:00am 7.8 4.5 4.4 79 1.6 SW 11 15 6 8 - - 0.0
30/04:30am 8.2 4.5 4.6 78 1.7 WSW 13 20 7 11 - - 0.0
30/04:00am 8.2 4.2 4.8 79 1.6 WSW 15 17 8 9 - - 0.0
30/03:30am 8.4 4.8 5.0 79 1.6 WSW 13 19 7 10 - - 0.0
30/03:00am 8.4 5.3 5.5 82 1.4 WSW 11 17 6 9 - - 0.0
30/02:30am 8.9 4.6 5.3 78 1.7 SW 17 24 9 13 - - 0.0
30/02:00am 9.0 6.0 6.1 82 1.4 SW 11 19 6 10 - - 0.0
30/01:30am 9.2 5.5 6.3 82 1.4 SW 15 20 8 11 - - 0.0
30/01:00am 9.1 5.8 6.5 84 1.3 SW 13 17 7 9 - - 0.0
30/12:30am 9.0 6.6 6.8 86 1.1 WSW 9 13 5 7 - - 0.0
30/12:00am 9.3 6.8 6.7 84 1.3 SW 9 15 5 8 - - 0.0
 
Date/Time
EDT
Temp
°C
App
Temp
°C
Dew
Point
Rel
Hum
%
Delta-T
°C
Wind Press
QNH
hPa
Press
MSL
hPa
Rain
since 9 am
mm
Dir
 
Spd
km/h
Gust
km/h
Spd
kts
Gust
kts
29/11:30pm 9.4 7.3 6.8 84 1.3 SSW 7 13 4 7 - - 0.0
29/11:00pm 9.5 8.4 7.1 85 1.2 SE 2 9 1 5 - - 0.0
29/10:30pm 9.8 8.1 7.7 87 1.1 NE 6 7 3 4 - - 0.0
29/10:00pm 9.9 8.1 7.3 84 1.3 ENE 6 9 3 5 - - 0.0
29/09:30pm 10.7 8.3 7.0 78 1.9 ENE 9 13 5 7 - - 0.0
29/09:00pm 11.7 8.7 6.0 68 2.8 ESE 11 19 6 10 - - 0.0
29/08:30pm 12.1 9.1 5.9 66 3.1 ESE 11 20 6 11 - - 0.0
29/08:00pm 13.5 10.7 5.2 57 4.1 ESE 9 15 5 8 - - 0.0
29/07:30pm 14.6 11.9 5.7 55 4.5 SE 9 17 5 9 - - 0.0
29/07:00pm 16.1 13.4 5.7 50 5.3 SE 9 17 5 9 - - 0.0
29/06:30pm 16.8 13.3 5.4 47 5.8 S 13 20 7 11 - - 0.0
29/06:00pm 17.6 14.3 6.2 47 5.9 SW 13 22 7 12 - - 0.0
29/05:30pm 17.3 13.9 5.9 47 5.9 SSW 13 20 7 11 - - 0.0
29/05:00pm 15.1 11.3 5.6 53 4.8 SW 15 22 8 12 - - 0.0
29/04:30pm 15.7 12.2 5.3 50 5.2 SSW 13 19 7 10 - - 0.0
29/04:00pm 16.3 12.5 5.6 49 5.5 SW 15 26 8 14 - - 0.0
29/03:30pm 15.3 11.9 6.1 54 4.7 SSW 13 20 7 11 - - 0.0
29/03:00pm 15.1 11.6 5.6 53 4.8 SSW 13 24 7 13 - - 0.0
29/02:30pm 15.4 11.3 4.5 48 5.4 SW 15 30 8 16 - - 0.0
29/02:00pm 14.4 10.8 5.2 54 4.6 SW 13 17 7 9 - - 0.0
29/01:30pm 15.1 11.7 6.1 55 4.6 SW 13 24 7 13 - - 0.0
29/01:00pm 14.4 10.3 6.0 57 4.3 WSW 17 24 9 13 - - 0.0
29/12:30pm 14.7 10.8 5.5 54 4.6 WSW 15 22 8 12 - - 0.0
29/12:00pm 14.0 10.6 6.1 59 4.0 SW 13 19 7 10 - - 0.0
29/11:30am 13.1 8.9 5.5 60 3.8 SW 17 32 9 17 - - 0.0
29/11:00am 12.2 7.8 4.9 61 3.6 SSW 17 26 9 14 - - 0.0
29/10:30am 11.4 6.9 4.4 62 3.4 SSW 17 28 9 15 - - 0.0
29/10:00am 11.2 7.7 5.3 67 2.9 SW 13 24 7 13 - - 0.0
29/09:30am 10.0 6.2 3.7 65 2.9 SSW 13 28 7 15 - - 0.0
29/09:00am 9.6 5.8 3.8 67 2.7 SSW 13 20 7 11 - - 6.4
29/08:30am 9.2 5.4 4.0 70 2.4 SW 13 22 7 12 - - 6.4
29/08:00am 8.4 5.1 4.6 77 1.8 SW 11 19 6 10 - - 6.4
29/07:30am 8.2 4.6 5.1 81 1.5 SW 13 20 7 11 - - 6.4
29/07:00am 8.0 3.8 5.5 84 1.2 SW 17 24 9 13 - - 6.4
29/06:30am 7.9 3.7 5.9 87 1.0 SW 17 26 9 14 - - 6.4
29/06:02am 8.0 4.0 6.5 90 0.7 SW 17 26 9 14 - - 6.4
29/06:00am 8.0 4.0 6.5 90 0.7 SW 17 28 9 15 - - 6.4
29/05:30am 8.2 4.7 7.1 93 0.5 SSW 15 24 8 13 - - 6.4
29/05:00am 8.3 5.2 7.2 93 0.5 SSW 13 22 7 12 - - 6.4
29/04:30am 8.4 5.3 7.3 93 0.6 S 13 26 7 14 - - 6.4
29/04:00am 8.5 5.8 7.4 93 0.6 S 11 20 6 11 - - 6.4
29/03:30am 8.6 6.0 7.7 94 0.5 S 11 19 6 10 - - 6.4
29/03:00am 8.7 6.1 7.8 94 0.5 SSW 11 24 6 13 - - 6.4
29/02:30am 8.7 6.1 7.8 94 0.5 S 11 19 6 10 - - 6.4
29/02:00am 8.8 6.3 8.0 95 0.4 S 11 17 6 9 - - 6.4
29/01:30am 8.7 5.7 7.8 94 0.5 SSW 13 17 7 9 - - 6.4
29/01:00am 8.9 6.0 8.0 94 0.5 S 13 20 7 11 - - 6.4
29/12:30am 8.6 6.0 7.7 94 0.5 S 11 20 6 11 - - 6.4
29/12:23am 8.6 5.6 7.5 93 0.6 S 13 20 7 11 - - 6.4
29/12:00am 8.6 5.6 7.5 93 0.6 S 13 20 7 11 - - 6.4
 
Date/Time
EDT
Temp
°C
App
Temp
°C
Dew
Point
Rel
Hum
%
Delta-T
°C
Wind Press
QNH
hPa
Press
MSL
hPa
Rain
since 9 am
mm
Dir
 
Spd
km/h
Gust
km/h
Spd
kts
Gust
kts
28/11:30pm 8.7 5.7 7.5 92 0.6 SSW 13 22 7 12 - - 6.4
28/11:00pm 9.0 6.4 7.8 92 0.6 S 11 20 6 11 - - 6.4
28/10:30pm 9.1 6.6 8.0 93 0.6 S 11 20 6 11 - - 6.4
28/10:00pm 9.2 7.1 8.1 93 0.6 S 9 17 5 9 - - 6.4
28/09:30pm 9.2 7.4 8.0 92 0.6 SE 7 13 4 7 - - 6.4
28/09:00pm 9.3 7.0 7.4 88 1.0 ESE 9 19 5 10 - - 6.4
28/08:30pm 9.8 6.0 7.7 87 1.1 ESE 17 30 9 16 - - 6.4
28/08:10pm 10.3 7.4 8.2 87 1.1 ESE 13 28 7 15 - - 6.4
28/08:00pm 10.9 7.4 8.8 87 1.1 SE 17 28 9 15 - - 6.4
28/07:54pm 11.3 8.8 9.6 89 0.9 ESE 13 26 7 14 - - 6.4
28/07:30pm 11.9 9.8 9.8 87 1.1 ESE 11 19 6 10 - - 6.4
28/07:00pm 12.5 10.0 9.7 83 1.5 SE 13 20 7 11 - - 6.4
28/06:46pm 12.7 10.3 9.9 83 1.5 SSE 13 22 7 12 - - 6.4
28/06:30pm 12.6 10.2 10.1 85 1.4 SSE 13 24 7 13 - - 6.4
28/06:00pm 11.9 10.4 10.6 92 0.7 SSE 9 26 5 14 - - 6.4
28/05:51pm 11.7 10.1 10.3 91 0.8 SSE 9 22 5 12 - - 6.4
28/05:30pm 11.8 10.0 10.7 93 0.6 SSE 11 20 6 11 - - 6.4
28/05:00pm 11.5 9.2 10.6 94 0.5 ESE 13 24 7 13 - - 6.4
28/04:53pm 11.3 8.6 10.4 94 0.5 ESE 15 24 8 13 - - 6.4
28/04:38pm 11.3 7.9 10.5 95 0.4 ESE 19 33 10 18 - - 6.4
28/04:30pm 11.3 8.3 10.5 95 0.4 ESE 17 32 9 17 - - 6.4
28/04:15pm 11.3 8.1 10.0 92 0.7 ESE 17 28 9 15 - - 6.0
28/04:00pm 12.5 10.9 11.4 93 0.6 SE 11 22 6 12 - - 6.0
28/03:44pm 12.5 10.9 11.7 95 0.4 SSE 11 17 6 9 - - 6.0
28/03:30pm 12.2 10.6 11.4 95 0.4 SSE 11 22 6 12 - - 6.0
28/03:28pm 12.0 10.7 11.1 94 0.5 SSE 9 22 5 12 - - 6.0
28/03:08pm 12.2 10.3 11.7 97 0.3 SE 13 28 7 15 - - 6.0
28/03:00pm 12.5 9.9 12.0 97 0.3 SE 17 30 9 16 - - 6.0
28/02:30pm 11.9 9.9 11.6 98 0.2 ESE 13 26 7 14 - - 5.8
28/02:00pm 11.4 8.9 11.1 98 0.2 ESE 15 35 8 19 - - 5.6
28/01:38pm 11.1 8.5 10.6 97 0.3 ESE 15 28 8 15 - - 5.4
28/01:36pm 11.1 8.5 10.6 97 0.3 ESE 15 28 8 15 - - 5.4
28/01:30pm 11.2 9.0 10.7 97 0.3 ESE 13 30 7 16 - - 5.4
28/01:00pm 11.3 9.9 10.8 97 0.3 ESE 9 17 5 9 - - 4.6
28/12:52pm 11.3 9.5 10.8 97 0.3 ESE 11 20 6 11 - - 4.4
28/12:40pm 11.5 9.8 11.2 98 0.2 ESE 11 24 6 13 - - 4.2
28/12:30pm 11.7 10.1 11.4 98 0.2 ESE 11 20 6 11 - - 4.2
28/12:00pm 11.7 9.7 11.4 98 0.2 E 13 26 7 14 - - 3.8
28/11:37am 11.6 9.9 11.3 98 0.2 E 11 20 6 11 - - 3.6
28/11:35am 11.8 9.8 11.5 98 0.2 E 13 33 7 18 - - 3.4
28/11:30am 11.7 9.3 11.4 98 0.2 ESE 15 33 8 18 - - 3.4
28/11:00am 11.7 10.1 11.4 98 0.2 SE 11 19 6 10 - - 3.2
28/10:30am 11.4 9.7 11.1 98 0.2 SSE 11 22 6 12 - - 2.2
28/10:00am 11.5 10.2 11.3 99 0.1 SSE 9 22 5 12 - - 1.6
28/09:30am 11.5 10.2 11.3 99 0.1 SSE 9 17 5 9 - - 1.0
28/09:00am 11.0 8.8 10.8 99 0.1 SSE 13 26 7 14 - - 31.2
28/08:30am 11.0 8.4 10.8 99 0.1 SE 15 30 8 16 - - 30.8
28/08:00am 11.0 9.2 10.8 99 0.1 SSE 11 30 6 16 - - 30.6
28/07:34am 11.1 9.3 10.9 99 0.1 SE 11 20 6 11 - - 30.6
28/07:30am 11.1 8.9 10.9 99 0.1 SE 13 22 7 12 - - 30.6
28/07:00am 11.0 9.2 10.8 99 0.1 ESE 11 20 6 11 - - 30.6
28/06:33am 10.8 8.9 10.6 99 0.1 ESE 11 28 6 15 - - 30.6
28/06:30am 10.8 8.5 10.6 99 0.1 ESE 13 28 7 15 - - 30.6
28/06:00am 10.5 8.9 10.3 99 0.1 E 9 20 5 11 - - 30.6
28/05:30am 10.4 8.4 10.2 99 0.1 E 11 20 6 11 - - 30.6
28/05:27am 10.5 8.5 10.3 99 0.1 E 11 17 6 9 - - 30.6
28/05:26am 10.5 8.5 10.3 99 0.1 E 11 17 6 9 - - 30.6
28/05:00am 10.6 8.3 10.4 99 0.1 E 13 24 7 13 - - 30.6
28/04:30am 10.7 8.4 10.5 99 0.1 E 13 28 7 15 - - 30.4
28/04:00am 10.8 8.2 10.6 99 0.1 E 15 28 8 15 - - 29.8
28/03:30am 10.8 7.8 10.6 99 0.1 E 17 32 9 17 - - 29.6
28/03:00am 11.4 8.9 11.2 99 0.1 E 15 32 8 17 - - 28.6
28/02:30am 11.9 10.3 11.7 99 0.1 E 11 19 6 10 - - 27.2
28/02:00am 12.1 10.6 11.9 99 0.1 E 11 20 6 11 - - 26.8
28/01:30am 12.1 10.6 11.9 99 0.1 E 11 22 6 12 - - 25.6
28/01:00am 12.1 10.2 11.9 99 0.1 E 13 26 7 14 - - 24.8
28/12:30am 12.3 10.9 12.1 99 0.1 E 11 24 6 13 - - 23.2
28/12:00am 12.3 10.9 12.1 99 0.1 E 11 22 6 12 - - 22.0
 
Date/Time
EDT
Temp
°C
App
Temp
°C
Dew
Point
Rel
Hum
%
Delta-T
°C
Wind Press
QNH
hPa
Press
MSL
hPa
Rain
since 9 am
mm
Dir
 
Spd
km/h
Gust
km/h
Spd
kts
Gust
kts
27/11:30pm 12.4 11.0 12.2 99 0.1 E 11 22 6 12 - - 20.8
27/11:00pm 12.4 10.6 12.2 99 0.1 SE 13 24 7 13 - - 20.0
27/10:56pm 12.4 10.6 12.2 99 0.1 SE 13 24 7 13 - - 19.8
27/10:54pm 12.4 10.6 12.2 99 0.1 SE 13 24 7 13 - - 19.8
27/10:38pm 12.5 11.5 12.3 99 0.1 E 9 17 5 9 - - 19.6
27/10:30pm 12.5 11.5 12.3 99 0.1 E 9 17 5 9 - - 19.6
27/10:00pm 12.4 11.8 12.2 99 0.1 E 7 15 4 8 - - 18.4
27/09:30pm 12.3 11.2 12.1 99 0.1 ENE 9 17 5 9 - - 17.8
27/09:23pm 12.3 11.2 12.1 99 0.1 ENE 9 15 5 8 - - 17.6
27/09:00pm 12.2 10.4 12.0 99 0.1 ENE 13 22 7 12 - - 17.2
27/08:30pm 12.3 11.2 12.1 99 0.1 E 9 20 5 11 - - 17.2
27/08:29pm 12.3 11.2 12.1 99 0.1 E 9 20 5 11 - - 17.2
27/08:00pm 12.3 11.2 12.1 99 0.1 E 9 17 5 9 - - 16.8
27/07:36pm 12.2 10.7 11.9 98 0.2 ENE 11 19 6 10 - - 16.4
27/07:30pm 12.1 10.6 11.8 98 0.2 ENE 11 19 6 10 - - 16.4
27/07:03pm 12.2 10.3 11.9 98 0.2 E 13 26 7 14 - - 16.2
27/07:00pm 12.2 10.3 11.9 98 0.2 ENE 13 26 7 14 - - 16.2
27/06:30pm 12.9 12.0 12.6 98 0.2 E 9 19 5 10 - - 15.8
27/06:00pm 13.1 11.9 12.8 98 0.2 E 11 22 6 12 - - 14.8
27/05:38pm 13.3 11.8 13.0 98 0.2 E 13 28 7 15 - - 14.2
27/05:30pm 13.4 12.3 13.1 98 0.2 E 11 26 6 14 - - 14.0
27/05:19pm 13.4 11.9 13.1 98 0.2 E 13 20 7 11 - - 14.0
27/05:00pm 13.6 12.6 13.3 98 0.2 ENE 11 24 6 13 - - 14.0
27/04:49pm 13.5 11.7 13.2 98 0.2 ENE 15 28 8 15 - - 13.8
27/04:30pm 13.9 12.6 13.6 98 0.2 ENE 13 26 7 14 - - 13.6
27/04:05pm 13.7 13.1 13.4 98 0.2 ENE 9 22 5 12 - - 12.6
27/04:00pm 13.8 13.6 13.5 98 0.2 E 7 15 4 8 - - 12.6
27/03:41pm 13.7 12.7 13.4 98 0.2 E 11 20 6 11 - - 11.8
27/03:30pm 13.6 12.6 13.3 98 0.2 E 11 20 6 11 - - 11.8
27/03:00pm 13.4 12.3 13.1 98 0.2 E 11 19 6 10 - - 11.0
27/02:30pm 13.6 12.9 13.3 98 0.2 E 9 20 5 11 - - 10.8
27/02:00pm 13.7 12.3 13.4 98 0.2 E 13 26 7 14 - - 10.6

Other Formats:

Comma delimited format used in spreadsheet applications
http://www.bom.gov.au/fwo/IDN60801/IDN60801.94743.axf

JavaScript Object Notation format (JSON) in row-major order
http://www.bom.gov.au/fwo/IDN60801/IDN60801.94743.json